Time;durP1;ratioP1;P1;durP2;ratioP2;P2;SDS_P1;SDS_P2;PMS_P1;PMS_P2;Temp;Humidity;BMP_temperature;BMP_pressure;BME280_temperature;BME280_humidity;BME280_pressure;Samples;Min_cycle;Max_cycle;Signal;HPM_P1;HPM_P2
2023/07/27 00:00:46;;;;;;;3.93;3.53;;;;;;;;;;5055895;28;20214;-63
2023/07/27 00:03:15;;;;;;;3.97;3.57;;;;;;;;;;5057310;28;20300;-62
2023/07/27 00:05:57;;;;;;;3.90;3.23;;;;;;;;;;5051261;28;20233;-62
2023/07/27 00:08:35;;;;;;;5.20;3.57;;;;;;;;;;5037974;28;20202;-64
2023/07/27 00:11:04;;;;;;;3.60;3.30;;;;;;;;;;5037543;28;20253;-63
2023/07/27 00:13:34;;;;;;;4.20;3.33;;;;;;;;;;5061084;28;20213;-64
2023/07/27 00:16:07;;;;;;;3.40;3.17;;;;;;;;;;5059052;28;20221;-64
2023/07/27 00:18:44;;;;;;;3.43;3.07;;;;;;;;;;5059768;28;20201;-63
2023/07/27 00:21:21;;;;;;;4.00;3.23;;;;;;;;;;5048284;28;20231;-63
2023/07/27 00:23:55;;;;;;;3.83;3.53;;;;;;;;;;5049141;28;20198;-64
2023/07/27 00:26:31;;;;;;;3.57;3.27;;;;;;;;;;5056876;28;20226;-63
2023/07/27 00:29:11;;;;;;;5.67;3.60;;;;;;;;;;5063327;28;20216;-63
2023/07/27 00:32:07;;;;;;;3.40;3.10;;;;;;;;;;5046271;28;20210;-63
2023/07/27 00:34:52;;;;;;;3.50;3.20;;;;;;;;;;5044725;28;20218;-63
2023/07/27 00:37:28;;;;;;;4.80;3.50;;;;;;;;;;5064363;28;20226;-64
2023/07/27 00:40:10;;;;;;;3.63;3.33;;;;;;;;;;5043881;28;20194;-64
2023/07/27 00:42:43;;;;;;;4.63;3.33;;;;;;;;;;5062115;28;20210;-62
2023/07/27 00:45:11;;;;;;;4.37;3.17;;;;;;;;;;5047538;28;20202;-64
2023/07/27 00:47:54;;;;;;;3.90;3.50;;;;;;;;;;5070502;28;20237;-65
2023/07/27 00:50:25;;;;;;;3.63;3.20;;;;;;;;;;5059829;28;20230;-63
2023/07/27 00:53:00;;;;;;;3.60;3.30;;;;;;;;;;5060718;28;20196;-63
2023/07/27 00:55:40;;;;;;;3.60;3.00;;;;;;;;;;5063547;28;20225;-64
2023/07/27 00:58:25;;;;;;;3.27;2.97;;;;;;;;;;5065917;28;20226;-63
2023/07/27 01:01:03;;;;;;;3.90;3.20;;;;;;;;;;5043713;28;20211;-63
2023/07/27 01:03:41;;;;;;;4.83;3.23;;;;;;;;;;5066735;28;20265;-63
2023/07/27 01:06:31;;;;;;;3.17;2.97;;;;;;;;;;5063501;28;20257;-65
2023/07/27 01:09:03;;;;;;;3.60;3.17;;;;;;;;;;5044783;28;20269;-63
2023/07/27 01:11:58;;;;;;;4.23;3.30;;;;;;;;;;5067936;28;20302;-63
2023/07/27 01:14:38;;;;;;;3.20;2.90;;;;;;;;;;5048641;28;20222;-64
2023/07/27 01:17:12;;;;;;;3.67;3.13;;;;;;;;;;5066805;28;20811;-64
2023/07/27 01:20:04;;;;;;;3.87;3.33;;;;;;;;;;5064936;28;20196;-63
2023/07/27 01:22:48;;;;;;;3.80;3.43;;;;;;;;;;5062040;28;20207;-63
2023/07/27 01:25:19;;;;;;;3.63;3.33;;;;;;;;;;5062024;28;20198;-63
2023/07/27 01:27:57;;;;;;;3.67;3.33;;;;;;;;;;5042801;28;20222;-63
2023/07/27 01:30:54;;;;;;;3.77;3.40;;;;;;;;;;5060061;28;20246;-63
2023/07/27 01:33:31;;;;;;;3.60;3.30;;;;;;;;;;5065636;28;20206;-68
2023/07/27 01:36:04;;;;;;;3.87;3.47;;;;;;;;;;5066865;28;20690;-63
2023/07/27 01:38:37;;;;;;;4.40;3.23;;;;;;;;;;5065472;28;20194;-63
2023/07/27 01:41:10;;;;;;;5.23;3.67;;;;;;;;;;5052056;28;20714;-64
2023/07/27 01:43:42;;;;;;;5.37;3.90;;;;;;;;;;5033871;28;20210;-63
2023/07/27 01:46:14;;;;;;;4.20;3.80;;;;;;;;;;5041103;28;20206;-63
2023/07/27 01:48:50;;;;;;;4.17;3.80;;;;;;;;;;5038918;28;20305;-64
2023/07/27 01:51:26;;;;;;;5.03;4.10;;;;;;;;;;5050000;28;20308;-63
2023/07/27 01:53:59;;;;;;;4.50;3.93;;;;;;;;;;5055205;28;20202;-63
2023/07/27 01:56:33;;;;;;;4.87;4.03;;;;;;;;;;5042408;28;20226;-63
2023/07/27 01:59:03;;;;;;;4.63;3.97;;;;;;;;;;5060463;28;20599;-63
2023/07/27 02:01:54;;;;;;;7.87;4.43;;;;;;;;;;5043258;28;20205;-63
2023/07/27 02:04:24;;;;;;;5.03;4.53;;;;;;;;;;5059680;28;20202;-63
2023/07/27 02:06:56;;;;;;;4.57;4.17;;;;;;;;;;5045314;28;20260;-63
2023/07/27 02:09:29;;;;;;;4.43;4.03;;;;;;;;;;5051835;28;20330;-67
2023/07/27 02:12:02;;;;;;;4.63;4.13;;;;;;;;;;5057253;28;20218;-63
2023/07/27 02:14:41;;;;;;;5.20;4.70;;;;;;;;;;5062609;28;20241;-63
2023/07/27 02:17:26;;;;;;;4.70;4.17;;;;;;;;;;5055985;28;20284;-63
2023/07/27 02:19:58;;;;;;;4.53;4.10;;;;;;;;;;5059720;28;20198;-62
2023/07/27 02:22:29;;;;;;;4.17;3.87;;;;;;;;;;5035975;28;20195;-63
2023/07/27 02:25:05;;;;;;;5.23;4.10;;;;;;;;;;5064606;28;20228;-63
2023/07/27 02:27:36;;;;;;;6.57;4.27;;;;;;;;;;5065608;28;20289;-63
2023/07/27 02:30:11;;;;;;;4.40;4.00;;;;;;;;;;5057212;28;20228;-64
2023/07/27 02:32:50;;;;;;;4.40;4.00;;;;;;;;;;5042906;28;20561;-63
2023/07/27 02:35:21;;;;;;;4.60;4.20;;;;;;;;;;5061140;28;20204;-64
2023/07/27 02:37:59;;;;;;;4.57;4.17;;;;;;;;;;5056940;28;20222;-63
2023/07/27 02:40:33;;;;;;;4.33;3.93;;;;;;;;;;5041758;28;20220;-64
2023/07/27 02:43:07;;;;;;;5.03;4.53;;;;;;;;;;5063179;28;20240;-63
2023/07/27 02:45:36;;;;;;;5.07;4.57;;;;;;;;;;5071239;28;20282;-63
2023/07/27 02:48:15;;;;;;;5.83;4.47;;;;;;;;;;5047431;28;20230;-64
2023/07/27 02:50:58;;;;;;;5.40;3.93;;;;;;;;;;5063036;28;20234;-62
2023/07/27 02:53:29;;;;;;;5.57;4.73;;;;;;;;;;5067002;28;20205;-62
2023/07/27 02:56:14;;;;;;;4.10;3.73;;;;;;;;;;5043218;28;20413;-66
2023/07/27 02:58:47;;;;;;;4.47;3.97;;;;;;;;;;5062111;28;20265;-63
2023/07/27 03:01:22;;;;;;;4.83;4.43;;;;;;;;;;5059362;28;20658;-62
2023/07/27 03:03:58;;;;;;;4.57;3.87;;;;;;;;;;5054951;28;20599;-63
2023/07/27 03:06:29;;;;;;;4.50;4.10;;;;;;;;;;5059772;28;20218;-62
2023/07/27 03:09:02;;;;;;;4.43;4.03;;;;;;;;;;5061757;28;20240;-63
2023/07/27 03:11:45;;;;;;;5.57;4.07;;;;;;;;;;5045544;28;20232;-64
2023/07/27 03:14:22;;;;;;;3.90;3.50;;;;;;;;;;5048248;28;20213;-63
2023/07/27 03:17:05;;;;;;;5.80;4.23;;;;;;;;;;5047068;28;20275;-63
2023/07/27 03:19:47;;;;;;;4.43;4.03;;;;;;;;;;5060800;28;20233;-64
2023/07/27 03:22:19;;;;;;;4.50;4.10;;;;;;;;;;5064322;28;20202;-64
2023/07/27 03:24:49;;;;;;;4.13;3.73;;;;;;;;;;5040622;28;20211;-62
2023/07/27 03:27:20;;;;;;;4.57;3.97;;;;;;;;;;5060520;28;20229;-63
2023/07/27 03:29:50;;;;;;;3.80;3.50;;;;;;;;;;5043347;28;20860;-64
2023/07/27 03:32:22;;;;;;;4.27;3.73;;;;;;;;;;5036661;28;20223;-63
2023/07/27 03:34:53;;;;;;;4.20;3.80;;;;;;;;;;5031878;28;20206;-64
2023/07/27 03:37:22;;;;;;;3.83;3.53;;;;;;;;;;5046231;28;20277;-64
2023/07/27 03:39:55;;;;;;;5.20;4.03;;;;;;;;;;5029904;28;20202;-64
2023/07/27 03:42:26;;;;;;;4.70;3.70;;;;;;;;;;5046989;28;20256;-62
2023/07/27 03:44:59;;;;;;;6.43;3.80;;;;;;;;;;5032152;28;20202;-64
2023/07/27 03:47:29;;;;;;;4.57;4.17;;;;;;;;;;5053317;28;20237;-64
2023/07/27 03:49:59;;;;;;;4.07;3.40;;;;;;;;;;5029753;28;20210;-65
2023/07/27 03:52:30;;;;;;;4.00;3.50;;;;;;;;;;5038448;28;20225;-64
2023/07/27 03:55:00;;;;;;;3.77;3.37;;;;;;;;;;5058030;28;20209;-64
2023/07/27 03:57:33;;;;;;;3.17;2.87;;;;;;;;;;5033474;28;20304;-64
2023/07/27 04:00:07;;;;;;;3.40;3.10;;;;;;;;;;5064396;28;20213;-66
2023/07/27 04:02:36;;;;;;;4.60;3.27;;;;;;;;;;5061440;28;20214;-67
2023/07/27 04:05:06;;;;;;;3.50;3.20;;;;;;;;;;5060643;28;20202;-66
2023/07/27 04:07:35;;;;;;;3.30;3.00;;;;;;;;;;5061219;28;20242;-65
2023/07/27 04:10:06;;;;;;;10.53;3.30;;;;;;;;;;5044075;28;20212;-62
2023/07/27 04:12:36;;;;;;;3.50;3.20;;;;;;;;;;5058764;28;20205;-64
2023/07/27 04:15:06;;;;;;;3.53;3.23;;;;;;;;;;5066970;28;20277;-65
2023/07/27 04:17:35;;;;;;;3.27;3.07;;;;;;;;;;5041749;28;20226;-64
2023/07/27 04:20:03;;;;;;;3.67;3.20;;;;;;;;;;5066317;28;20202;-66
2023/07/27 04:22:33;;;;;;;4.17;3.23;;;;;;;;;;5062972;28;20293;-63
2023/07/27 04:25:02;;;;;;;3.80;3.50;;;;;;;;;;5060675;28;20289;-67
2023/07/27 04:27:33;;;;;;;3.60;3.30;;;;;;;;;;5048120;28;20230;-62
2023/07/27 04:30:04;;;;;;;4.05;2.88;;;;;;;;;;5037519;28;21122;-64
2023/07/27 04:32:36;;;;;;;3.40;2.90;;;;;;;;;;5061228;28;20320;-61
2023/07/27 04:35:06;;;;;;;4.70;3.27;;;;;;;;;;5035699;28;20206;-62
2023/07/27 04:37:38;;;;;;;3.50;3.20;;;;;;;;;;5040178;28;20342;-63
2023/07/27 04:40:06;;;;;;;3.03;2.83;;;;;;;;;;5048555;28;20225;-64
2023/07/27 04:42:38;;;;;;;3.17;2.87;;;;;;;;;;5054323;28;20277;-63
2023/07/27 04:45:09;;;;;;;3.30;2.97;;;;;;;;;;5061199;28;20212;-63
2023/07/27 04:47:38;;;;;;;4.03;3.10;;;;;;;;;;5058271;28;20225;-65
2023/07/27 04:50:08;;;;;;;4.47;2.97;;;;;;;;;;5056412;28;20199;-63
2023/07/27 04:52:37;;;;;;;3.22;3.00;;;;;;;;;;5057904;28;20234;-62
2023/07/27 04:55:08;;;;;;;3.40;2.95;;;;;;;;;;5060194;28;20245;-67
2023/07/27 04:57:37;;;;;;;3.80;3.00;;;;;;;;;;5059596;28;20222;-63
2023/07/27 05:00:09;;;;;;;3.10;2.87;;;;;;;;;;5043616;28;20225;-64
2023/07/27 05:02:41;;;;;;;3.20;2.85;;;;;;;;;;5041174;28;20222;-64
2023/07/27 05:05:09;;;;;;;3.40;3.10;;;;;;;;;;5056004;28;20233;-61
2023/07/27 05:07:38;;;;;;;3.30;3.00;;;;;;;;;;5064082;28;20222;-63
2023/07/27 05:10:11;;;;;;;3.30;3.00;;;;;;;;;;5065315;28;20340;-63
2023/07/27 05:12:40;;;;;;;2.92;2.72;;;;;;;;;;5056767;28;20210;-64
2023/07/27 05:15:09;;;;;;;3.42;3.15;;;;;;;;;;5060159;28;20203;-64
2023/07/27 05:17:38;;;;;;;3.15;2.83;;;;;;;;;;5053954;28;20226;-64
2023/07/27 05:20:06;;;;;;;3.88;3.20;;;;;;;;;;5062696;28;20244;-62
2023/07/27 05:22:35;;;;;;;4.57;2.97;;;;;;;;;;5059372;28;20206;-66
2023/07/27 05:25:04;;;;;;;2.65;2.45;;;;;;;;;;5062682;28;20290;-63
2023/07/27 05:27:33;;;;;;;2.95;2.65;;;;;;;;;;5037823;28;20613;-63
2023/07/27 05:30:02;;;;;;;3.10;2.70;;;;;;;;;;5063902;28;20255;-62
2023/07/27 05:32:30;;;;;;;3.45;2.90;;;;;;;;;;5034813;28;20316;-62
2023/07/27 05:34:59;;;;;;;2.70;2.50;;;;;;;;;;5045769;28;20213;-63
2023/07/27 05:37:28;;;;;;;3.22;2.60;;;;;;;;;;5033202;28;20213;-62
2023/07/27 05:39:57;;;;;;;3.13;2.80;;;;;;;;;;5032074;28;20198;-62
2023/07/27 05:42:26;;;;;;;3.03;2.80;;;;;;;;;;5051302;28;20206;-61
2023/07/27 05:44:58;;;;;;;2.78;2.58;;;;;;;;;;5053969;28;20239;-62
2023/07/27 05:47:27;;;;;;;2.63;2.40;;;;;;;;;;5054062;28;20305;-66
2023/07/27 05:49:57;;;;;;;3.30;2.70;;;;;;;;;;5048845;28;20211;-61
2023/07/27 05:52:26;;;;;;;2.40;2.08;;;;;;;;;;5055057;28;20218;-65
2023/07/27 05:54:58;;;;;;;2.72;2.38;;;;;;;;;;5034052;28;20213;-62
2023/07/27 05:57:28;;;;;;;2.90;2.60;;;;;;;;;;5035726;28;20224;-61
2023/07/27 05:59:57;;;;;;;3.60;2.67;;;;;;;;;;5052277;28;20527;-62
2023/07/27 06:02:35;;;;;;;4.25;2.97;;;;;;;;;;5056385;28;20215;-62
2023/07/27 06:05:04;;;;;;;2.67;2.47;;;;;;;;;;5054012;28;20214;-63
2023/07/27 06:07:33;;;;;;;2.92;2.63;;;;;;;;;;5054494;28;20225;-62
2023/07/27 06:10:05;;;;;;;3.35;2.47;;;;;;;;;;5054663;28;20238;-62
2023/07/27 06:12:37;;;;;;;3.20;2.72;;;;;;;;;;5051690;28;20655;-61
2023/07/27 06:15:15;;;;;;;3.05;2.50;;;;;;;;;;5025231;28;20211;-63
2023/07/27 06:17:44;;;;;;;3.53;2.50;;;;;;;;;;5052765;28;20222;-63
2023/07/27 06:20:13;;;;;;;3.05;2.60;;;;;;;;;;5056067;28;20679;-63
2023/07/27 06:22:41;;;;;;;3.00;2.70;;;;;;;;;;5035788;28;20233;-62
2023/07/27 06:25:10;;;;;;;5.45;2.45;;;;;;;;;;5052371;28;20214;-62
2023/07/27 06:27:39;;;;;;;2.47;2.35;;;;;;;;;;5052834;28;20246;-65
2023/07/27 06:30:09;;;;;;;2.65;2.45;;;;;;;;;;5056157;28;20202;-62
2023/07/27 06:32:41;;;;;;;2.70;2.50;;;;;;;;;;5053766;28;20222;-61
2023/07/27 06:35:10;;;;;;;2.42;2.22;;;;;;;;;;5060982;28;20198;-62
2023/07/27 06:37:39;;;;;;;2.50;2.30;;;;;;;;;;5055504;28;20230;-62
2023/07/27 06:40:08;;;;;;;2.63;2.42;;;;;;;;;;5048985;28;20209;-62
2023/07/27 06:42:37;;;;;;;3.10;2.28;;;;;;;;;;5052955;28;20625;-65
2023/07/27 06:45:08;;;;;;;2.55;2.10;;;;;;;;;;5028983;28;20237;-64
2023/07/27 06:47:37;;;;;;;3.28;2.33;;;;;;;;;;5051778;28;20225;-63
2023/07/27 06:50:07;;;;;;;2.53;2.33;;;;;;;;;;5053796;28;20595;-62
2023/07/27 06:52:36;;;;;;;4.40;2.45;;;;;;;;;;5037218;28;20309;-61
2023/07/27 06:55:06;;;;;;;3.75;2.35;;;;;;;;;;5062505;28;20229;-65
2023/07/27 06:57:35;;;;;;;4.30;2.53;;;;;;;;;;5064189;28;20225;-65
2023/07/27 07:00:06;;;;;;;2.45;2.25;;;;;;;;;;5027657;28;20206;-63
2023/07/27 07:02:38;;;;;;;2.53;2.33;;;;;;;;;;5065081;28;20227;-63
2023/07/27 07:05:07;;;;;;;2.60;2.40;;;;;;;;;;5065595;28;20658;-62
2023/07/27 07:07:35;;;;;;;2.67;2.47;;;;;;;;;;5043142;28;20234;-62
2023/07/27 07:10:04;;;;;;;2.50;2.30;;;;;;;;;;5062320;28;20206;-61
2023/07/27 07:12:33;;;;;;;2.47;2.28;;;;;;;;;;5061304;28;20222;-64
2023/07/27 07:15:02;;;;;;;2.97;2.70;;;;;;;;;;5038419;28;20623;-62
2023/07/27 07:17:30;;;;;;;4.13;2.70;;;;;;;;;;5061976;28;20233;-63
2023/07/27 07:20:09;;;;;;;4.00;2.75;;;;;;;;;;5046570;28;20205;-67
2023/07/27 07:22:38;;;;;;;3.58;2.63;;;;;;;;;;5061150;28;20210;-62
2023/07/27 07:25:07;;;;;;;3.78;2.47;;;;;;;;;;5046710;28;20301;-61
2023/07/27 07:27:36;;;;;;;2.72;2.47;;;;;;;;;;5049478;28;20372;-64
2023/07/27 07:30:04;;;;;;;2.63;2.42;;;;;;;;;;5050642;28;20216;-63
2023/07/27 07:32:36;;;;;;;2.90;2.60;;;;;;;;;;5040160;28;20225;-71
2023/07/27 07:35:05;;;;;;;3.80;2.65;;;;;;;;;;5030824;28;20277;-61
2023/07/27 07:37:37;;;;;;;2.95;2.75;;;;;;;;;;5047271;28;20218;-62
2023/07/27 07:40:06;;;;;;;2.67;2.47;;;;;;;;;;5029149;28;20203;-62
2023/07/27 07:42:35;;;;;;;3.03;2.83;;;;;;;;;;5028005;28;20208;-62
2023/07/27 07:45:07;;;;;;;2.90;2.50;;;;;;;;;;5041417;28;20253;-64
2023/07/27 07:47:36;;;;;;;3.97;2.78;;;;;;;;;;5036115;28;20232;-62
2023/07/27 07:50:07;;;;;;;4.15;2.55;;;;;;;;;;5049170;28;20260;-62
2023/07/27 07:52:37;;;;;;;2.67;2.47;;;;;;;;;;5049647;28;20218;-62
2023/07/27 07:55:08;;;;;;;4.00;2.58;;;;;;;;;;5048554;28;20688;-66
2023/07/27 07:57:37;;;;;;;4.78;2.85;;;;;;;;;;5051874;28;20719;-62
2023/07/27 08:00:08;;;;;;;3.70;3.00;;;;;;;;;;5053309;28;20261;-62
2023/07/27 08:02:41;;;;;;;4.18;2.72;;;;;;;;;;5028976;28;20228;-63
2023/07/27 08:05:10;;;;;;;5.30;2.47;;;;;;;;;;5053537;28;20693;-63
2023/07/27 08:07:39;;;;;;;2.75;2.53;;;;;;;;;;5051904;28;20252;-61
2023/07/27 08:10:08;;;;;;;2.60;2.40;;;;;;;;;;5053826;28;20202;-62
2023/07/27 08:12:38;;;;;;;15.18;3.00;;;;;;;;;;5051605;28;20242;-65
2023/07/27 08:15:07;;;;;;;4.80;2.90;;;;;;;;;;5049810;28;20229;-62
2023/07/27 08:17:35;;;;;;;2.72;2.53;;;;;;;;;;5052230;28;20866;-63
2023/07/27 08:20:04;;;;;;;3.92;2.58;;;;;;;;;;5052819;28;20198;-63
2023/07/27 08:22:33;;;;;;;3.10;2.75;;;;;;;;;;5050472;28;20210;-62
2023/07/27 08:25:01;;;;;;;2.85;2.55;;;;;;;;;;5027060;28;20227;-62
2023/07/27 08:27:45;;;;;;;2.83;2.60;;;;;;;;;;5049220;28;20234;-62
2023/07/27 08:30:14;;;;;;;2.63;2.42;;;;;;;;;;5051571;28;20228;-62
2023/07/27 08:32:43;;;;;;;6.20;2.83;;;;;;;;;;5050081;28;20222;-62
2023/07/27 08:35:11;;;;;;;3.05;2.75;;;;;;;;;;5035051;28;20209;-63
2023/07/27 08:37:40;;;;;;;2.90;2.67;;;;;;;;;;5054971;28;20214;-62
2023/07/27 08:40:10;;;;;;;2.50;2.30;;;;;;;;;;5045288;28;20208;-62
2023/07/27 08:42:39;;;;;;;4.43;2.47;;;;;;;;;;5053247;28;20205;-62
2023/07/27 08:45:08;;;;;;;3.17;2.72;;;;;;;;;;5036808;28;20580;-61
2023/07/27 08:47:39;;;;;;;3.15;2.85;;;;;;;;;;5058099;28;20222;-64
2023/07/27 08:50:13;;;;;;;2.88;2.53;;;;;;;;;;5056826;28;20207;-65
2023/07/27 08:52:43;;;;;;;2.70;2.50;;;;;;;;;;5059448;28;20272;-62
2023/07/27 08:55:15;;;;;;;3.10;2.70;;;;;;;;;;5052760;28;20196;-62
2023/07/27 08:57:43;;;;;;;2.70;2.50;;;;;;;;;;5054627;28;20230;-62
2023/07/27 09:00:16;;;;;;;3.17;2.83;;;;;;;;;;5057975;28;20676;-64
2023/07/27 09:02:45;;;;;;;2.80;2.42;;;;;;;;;;5037225;28;20303;-63
2023/07/27 09:05:19;;;;;;;2.50;2.35;;;;;;;;;;5037543;28;20271;-62
2023/07/27 09:07:50;;;;;;;2.60;2.40;;;;;;;;;;5042231;28;20226;-62
2023/07/27 09:10:19;;;;;;;4.75;2.50;;;;;;;;;;5061153;28;20206;-62
2023/07/27 09:12:48;;;;;;;2.67;2.47;;;;;;;;;;5056695;28;20226;-61
2023/07/27 09:15:17;;;;;;;2.70;2.33;;;;;;;;;;5034555;28;20202;-61
2023/07/27 09:17:45;;;;;;;2.53;2.38;;;;;;;;;;5058983;28;20226;-62
2023/07/27 09:20:16;;;;;;;3.50;2.10;;;;;;;;;;5052769;28;20669;-62
2023/07/27 09:22:49;;;;;;;2.60;2.10;;;;;;;;;;5049107;28;20210;-62
2023/07/27 09:25:22;;;;;;;2.50;2.30;;;;;;;;;;5045990;28;20208;-63
2023/07/27 09:27:58;;;;;;;3.55;2.72;;;;;;;;;;5048613;28;20230;-61
2023/07/27 09:30:28;;;;;;;2.65;2.45;;;;;;;;;;5034998;28;20608;-63
2023/07/27 09:32:59;;;;;;;2.63;2.42;;;;;;;;;;5050477;28;20261;-62
2023/07/27 09:35:30;;;;;;;3.35;2.22;;;;;;;;;;5043881;28;20210;-64
2023/07/27 09:37:59;;;;;;;2.95;2.55;;;;;;;;;;5048613;28;20249;-62
2023/07/27 09:40:28;;;;;;;3.30;2.38;;;;;;;;;;5051489;28;20217;-62
2023/07/27 09:42:58;;;;;;;4.50;2.53;;;;;;;;;;5054732;28;20268;-66
2023/07/27 09:45:26;;;;;;;2.42;2.22;;;;;;;;;;5027599;28;20221;-65
2023/07/27 09:47:54;;;;;;;2.95;2.20;;;;;;;;;;5046652;28;20225;-62
2023/07/27 09:50:23;;;;;;;5.15;2.40;;;;;;;;;;5048078;28;20207;-63
2023/07/27 09:52:56;;;;;;;2.70;2.50;;;;;;;;;;5065004;28;20312;-67
2023/07/27 09:55:25;;;;;;;2.50;2.30;;;;;;;;;;5057736;28;20198;-65
2023/07/27 09:57:58;;;;;;;2.67;2.47;;;;;;;;;;5063066;28;20281;-62
2023/07/27 10:00:27;;;;;;;2.58;2.33;;;;;;;;;;5066082;28;20224;-62
2023/07/27 10:02:56;;;;;;;2.72;2.45;;;;;;;;;;5059570;28;20225;-64
2023/07/27 10:05:43;;;;;;;4.28;2.42;;;;;;;;;;5057042;28;20193;-61
2023/07/27 10:08:20;;;;;;;2.70;2.47;;;;;;;;;;5059303;28;20248;-61
2023/07/27 10:10:56;;;;;;;2.33;2.13;;;;;;;;;;5037701;28;20293;-65
2023/07/27 10:13:24;;;;;;;2.72;2.30;;;;;;;;;;5055978;28;20221;-62
2023/07/27 10:15:54;;;;;;;2.70;2.50;;;;;;;;;;5053287;28;20221;-62
2023/07/27 10:18:24;;;;;;;2.97;2.60;;;;;;;;;;5037437;28;20218;-62
2023/07/27 10:20:57;;;;;;;3.22;2.50;;;;;;;;;;5036052;28;20219;-62
2023/07/27 10:23:29;;;;;;;2.65;2.33;;;;;;;;;;5051925;28;20210;-64
2023/07/27 10:26:02;;;;;;;2.85;2.40;;;;;;;;;;5041107;28;20229;-62
2023/07/27 10:28:32;;;;;;;3.10;2.35;;;;;;;;;;5055997;28;20291;-64
2023/07/27 10:31:20;;;;;;;2.67;2.40;;;;;;;;;;5055024;28;20269;-63
2023/07/27 10:33:53;;;;;;;2.15;2.00;;;;;;;;;;5058959;28;20229;-65
2023/07/27 10:36:44;;;;;;;2.60;2.40;;;;;;;;;;5060429;28;20221;-64
2023/07/27 10:39:18;;;;;;;2.60;2.40;;;;;;;;;;5040331;28;20256;-63
2023/07/27 10:42:03;;;;;;;3.30;2.60;;;;;;;;;;5052674;28;20210;-63
2023/07/27 10:44:44;;;;;;;2.85;2.58;;;;;;;;;;5035058;28;20276;-68
2023/07/27 10:47:14;;;;;;;2.55;2.35;;;;;;;;;;5056978;28;20708;-66
2023/07/27 10:49:52;;;;;;;2.75;2.55;;;;;;;;;;5051314;28;20600;-63
2023/07/27 10:52:22;;;;;;;3.58;2.80;;;;;;;;;;5057106;28;20218;-62
2023/07/27 10:54:51;;;;;;;2.88;2.63;;;;;;;;;;5037560;28;20241;-62
2023/07/27 10:57:21;;;;;;;2.42;2.22;;;;;;;;;;5057983;28;20313;-64
2023/07/27 10:59:53;;;;;;;2.88;2.67;;;;;;;;;;5054087;28;20261;-64
2023/07/27 11:02:28;;;;;;;3.65;2.90;;;;;;;;;;5060551;28;20202;-64
2023/07/27 11:05:05;;;;;;;2.30;2.10;;;;;;;;;;5049757;28;20212;-63
2023/07/27 11:07:36;;;;;;;2.40;2.20;;;;;;;;;;5063365;28;20234;-64
2023/07/27 11:10:09;;;;;;;3.40;2.58;;;;;;;;;;5039607;28;20413;-62
2023/07/27 11:12:57;;;;;;;2.55;2.30;;;;;;;;;;5061512;28;20225;-62
2023/07/27 11:15:26;;;;;;;2.85;2.65;;;;;;;;;;5060408;28;20217;-65
2023/07/27 11:17:56;;;;;;;3.40;2.50;;;;;;;;;;5056949;28;20222;-61
2023/07/27 11:20:32;;;;;;;4.60;2.75;;;;;;;;;;5053494;28;20256;-63
2023/07/27 11:23:01;;;;;;;3.75;2.58;;;;;;;;;;5047016;28;20233;-61
2023/07/27 11:25:33;;;;;;;2.63;2.42;;;;;;;;;;5047882;28;20210;-61
2023/07/27 11:28:10;;;;;;;2.85;2.53;;;;;;;;;;5051555;28;20233;-63
2023/07/27 11:30:39;;;;;;;5.20;2.60;;;;;;;;;;5049842;28;20226;-62
2023/07/27 11:33:17;;;;;;;3.95;2.72;;;;;;;;;;5051984;28;20218;-66
2023/07/27 11:35:50;;;;;;;2.85;2.40;;;;;;;;;;5053013;28;20206;-63
2023/07/27 11:38:18;;;;;;;2.78;2.55;;;;;;;;;;5037968;28;20214;-63
2023/07/27 11:40:58;;;;;;;3.25;2.40;;;;;;;;;;5058833;28;20214;-62
2023/07/27 11:43:52;;;;;;;2.85;2.60;;;;;;;;;;5057906;28;20206;-62
2023/07/27 11:46:20;;;;;;;3.63;2.70;;;;;;;;;;5057798;28;20281;-63
2023/07/27 11:48:50;;;;;;;2.70;2.50;;;;;;;;;;5034298;28;20206;-61
2023/07/27 11:51:33;;;;;;;4.55;2.83;;;;;;;;;;5056501;28;20198;-63
2023/07/27 11:54:04;;;;;;;4.05;2.70;;;;;;;;;;5055780;28;20323;-64
2023/07/27 11:56:39;;;;;;;3.47;2.67;;;;;;;;;;5036764;28;20257;-62
2023/07/27 11:59:11;;;;;;;3.25;2.42;;;;;;;;;;5049101;28;20255;-63
2023/07/27 12:01:43;;;;;;;2.83;2.30;;;;;;;;;;5056533;28;20677;-62
2023/07/27 12:04:14;;;;;;;3.10;2.72;;;;;;;;;;5056918;28;20273;-62
2023/07/27 12:06:46;;;;;;;3.08;2.40;;;;;;;;;;5057573;28;20248;-62
2023/07/27 12:09:15;;;;;;;2.35;2.05;;;;;;;;;;5058309;28;20229;-62
2023/07/27 12:11:45;;;;;;;3.65;2.60;;;;;;;;;;5060641;28;20240;-63
2023/07/27 12:14:14;;;;;;;3.70;2.75;;;;;;;;;;5062665;28;20226;-62
2023/07/27 12:16:44;;;;;;;4.00;2.33;;;;;;;;;;5061265;28;20234;-62
2023/07/27 12:19:16;;;;;;;3.17;2.47;;;;;;;;;;5057365;28;20229;-62
2023/07/27 12:21:49;;;;;;;3.00;2.70;;;;;;;;;;5037578;28;20211;-63
2023/07/27 12:24:30;;;;;;;2.70;2.50;;;;;;;;;;5056524;28;20226;-62
2023/07/27 12:26:59;;;;;;;2.92;2.60;;;;;;;;;;5060494;28;20516;-63
2023/07/27 12:29:31;;;;;;;3.53;2.80;;;;;;;;;;5042767;28;20286;-62
2023/07/27 12:32:03;;;;;;;3.10;2.80;;;;;;;;;;5060014;28;20262;-67
2023/07/27 12:34:35;;;;;;;3.45;2.97;;;;;;;;;;5038402;28;20350;-62
2023/07/27 12:37:08;;;;;;;3.35;2.30;;;;;;;;;;5056231;28;20234;-62
2023/07/27 12:39:46;;;;;;;3.03;2.35;;;;;;;;;;5055929;28;20202;-62
2023/07/27 12:42:18;;;;;;;2.80;2.10;;;;;;;;;;5038454;28;20210;-62
2023/07/27 12:44:51;;;;;;;2.83;2.28;;;;;;;;;;5060313;28;20641;-62
2023/07/27 12:47:26;;;;;;;2.65;2.03;;;;;;;;;;5043373;28;20218;-62
2023/07/27 12:49:56;;;;;;;2.20;2.00;;;;;;;;;;5061404;28;20266;-62
2023/07/27 12:52:38;;;;;;;4.57;2.47;;;;;;;;;;5067090;28;20525;-61
2023/07/27 12:55:13;;;;;;;3.35;2.40;;;;;;;;;;5060766;28;20262;-62
2023/07/27 12:57:56;;;;;;;3.20;2.28;;;;;;;;;;5044072;28;20242;-61
2023/07/27 13:00:28;;;;;;;2.40;2.20;;;;;;;;;;5042954;28;20718;-61
2023/07/27 13:03:00;;;;;;;3.95;2.95;;;;;;;;;;5058822;28;20417;-63
2023/07/27 13:05:32;;;;;;;3.35;2.97;;;;;;;;;;5054087;28;20238;-62
2023/07/27 13:08:01;;;;;;;3.35;3.05;;;;;;;;;;5042533;28;20250;-62
2023/07/27 13:10:33;;;;;;;4.15;2.83;;;;;;;;;;5060844;28;20214;-62
2023/07/27 13:13:03;;;;;;;3.00;2.75;;;;;;;;;;5049084;28;20289;-62
2023/07/27 13:15:36;;;;;;;3.05;2.65;;;;;;;;;;5041979;28;20662;-62
2023/07/27 13:18:07;;;;;;;3.33;3.10;;;;;;;;;;5049314;28;20252;-62
2023/07/27 13:20:39;;;;;;;3.50;3.20;;;;;;;;;;5037835;28;20209;-61
2023/07/27 13:23:09;;;;;;;3.65;3.35;;;;;;;;;;5043994;28;20294;-62
2023/07/27 13:25:39;;;;;;;4.05;3.67;;;;;;;;;;5051637;28;20210;-62
2023/07/27 13:28:11;;;;;;;4.18;3.42;;;;;;;;;;5032739;28;20234;-62
2023/07/27 13:30:44;;;;;;;6.15;3.35;;;;;;;;;;5050204;28;20221;-62
2023/07/27 13:33:17;;;;;;;4.65;3.45;;;;;;;;;;5031544;28;20222;-61
2023/07/27 13:35:47;;;;;;;3.65;3.22;;;;;;;;;;5054214;28;20206;-62
2023/07/27 13:38:18;;;;;;;4.60;3.35;;;;;;;;;;5048170;28;20250;-62
2023/07/27 13:40:49;;;;;;;4.45;3.42;;;;;;;;;;5053445;28;20207;-62
2023/07/27 13:43:18;;;;;;;3.67;3.38;;;;;;;;;;5031977;28;20218;-62
2023/07/27 13:45:47;;;;;;;3.75;3.13;;;;;;;;;;5052060;28;20579;-62
2023/07/27 13:48:20;;;;;;;4.25;3.45;;;;;;;;;;5042200;28;20597;-62
2023/07/27 13:50:53;;;;;;;3.85;3.40;;;;;;;;;;5054712;28;20202;-62
2023/07/27 13:53:25;;;;;;;3.88;3.53;;;;;;;;;;5033030;28;20601;-62
2023/07/27 13:55:54;;;;;;;3.60;3.25;;;;;;;;;;5032929;28;20209;-63
2023/07/27 13:58:24;;;;;;;3.63;3.33;;;;;;;;;;5022999;28;20285;-62
2023/07/27 14:00:59;;;;;;;3.92;3.53;;;;;;;;;;5054253;28;20229;-62
2023/07/27 14:03:34;;;;;;;4.28;3.28;;;;;;;;;;5053298;28;20294;-62
2023/07/27 14:06:07;;;;;;;4.50;3.75;;;;;;;;;;5052564;28;20815;-62
2023/07/27 14:08:41;;;;;;;3.78;3.47;;;;;;;;;;5042490;28;20205;-62
2023/07/27 14:11:14;;;;;;;3.75;3.40;;;;;;;;;;5037821;28;20241;-63
2023/07/27 14:13:44;;;;;;;5.95;3.50;;;;;;;;;;5039662;28;20320;-62
2023/07/27 14:16:15;;;;;;;5.43;4.00;;;;;;;;;;5034132;28;20206;-64
2023/07/27 14:18:49;;;;;;;3.78;3.47;;;;;;;;;;5037003;28;20206;-62
2023/07/27 14:21:25;;;;;;;3.67;3.38;;;;;;;;;;5036440;28;20217;-62
2023/07/27 14:24:01;;;;;;;3.80;3.50;;;;;;;;;;5056841;28;20210;-62
2023/07/27 14:26:32;;;;;;;5.07;3.85;;;;;;;;;;5056491;28;20773;-62
2023/07/27 14:29:09;;;;;;;7.43;3.85;;;;;;;;;;5034293;28;20205;-62
2023/07/27 14:31:45;;;;;;;4.07;3.60;;;;;;;;;;5032574;28;20200;-61
2023/07/27 14:34:21;;;;;;;4.00;3.65;;;;;;;;;;5052382;28;20214;-61
2023/07/27 14:37:06;;;;;;;3.58;3.28;;;;;;;;;;5036024;28;20292;-62
2023/07/27 14:39:41;;;;;;;3.78;3.40;;;;;;;;;;5059997;28;20202;-62
2023/07/27 14:45:14;;;;;;;3.33;3.05;;;;;;;;;;5059488;28;20234;-63
2023/07/27 14:47:51;;;;;;;4.88;3.10;;;;;;;;;;5053349;28;20821;-64
2023/07/27 14:50:30;;;;;;;3.28;3.08;;;;;;;;;;5057984;28;20206;-62
2023/07/27 14:53:21;;;;;;;2.97;2.50;;;;;;;;;;5041544;28;20274;-63
2023/07/27 14:55:55;;;;;;;3.38;2.70;;;;;;;;;;5043829;28;20233;-62
2023/07/27 14:58:32;;;;;;;4.95;2.60;;;;;;;;;;5042852;28;20673;-63
2023/07/27 15:01:37;;;;;;;2.42;2.25;;;;;;;;;;5042992;28;20217;-62
2023/07/27 15:04:55;;;;;;;2.40;2.20;;;;;;;;;;5063019;28;20202;-64
2023/07/27 15:07:26;;;;;;;2.78;2.45;;;;;;;;;;5057842;28;20233;-62
2023/07/27 15:10:12;;;;;;;2.60;2.40;;;;;;;;;;5040004;28;20769;-63
2023/07/27 15:12:58;;;;;;;2.60;2.40;;;;;;;;;;5036614;28;20791;-63
2023/07/27 15:15:33;;;;;;;4.03;2.30;;;;;;;;;;5050003;28;20205;-63
2023/07/27 15:18:06;;;;;;;3.03;2.30;;;;;;;;;;5025382;28;20783;-65
2023/07/27 15:20:45;;;;;;;2.15;2.00;;;;;;;;;;5043414;28;20349;-67